createdAt,value
2019-02-17T00:02:30.918Z,2.24
2019-02-17T00:05:02.402Z,2.26
2019-02-17T00:07:34.224Z,2.36
2019-02-17T00:10:06.629Z,2.31
2019-02-17T00:12:37.855Z,2.29
2019-02-17T00:15:09.529Z,2.33
2019-02-17T00:17:40.608Z,2.27
2019-02-17T00:20:11.835Z,2.28
2019-02-17T00:22:43.092Z,2.18
2019-02-17T00:25:14.506Z,2.19
2019-02-17T00:27:45.987Z,2.30
2019-02-17T00:30:17.415Z,2.26
2019-02-17T00:32:49.161Z,2.25
2019-02-17T00:35:20.618Z,2.29
2019-02-17T00:37:52.074Z,2.37
2019-02-17T00:40:23.393Z,2.21
2019-02-17T00:42:54.864Z,2.17
2019-02-17T00:45:26.311Z,2.31
2019-02-17T00:47:57.772Z,2.24
2019-02-17T00:50:29.092Z,2.22
2019-02-17T00:53:00.562Z,2.19
2019-02-17T00:55:32.060Z,2.20
2019-02-17T00:58:03.369Z,2.28
2019-02-17T01:00:34.745Z,2.30
2019-02-17T01:03:06.257Z,2.44
2019-02-17T01:05:37.587Z,2.34
2019-02-17T01:08:08.959Z,2.31
2019-02-17T01:10:40.291Z,2.26
2019-02-17T01:13:11.738Z,2.22
2019-02-17T01:15:43.144Z,2.28
2019-02-17T01:18:14.650Z,2.28
2019-02-17T01:20:45.988Z,2.30
2019-02-17T01:23:17.455Z,2.28
2019-02-17T01:25:48.846Z,2.35
2019-02-17T01:28:20.252Z,2.38
2019-02-17T01:30:51.733Z,2.38
2019-02-17T01:33:23.160Z,2.38
2019-02-17T01:35:54.679Z,2.34
2019-02-17T01:38:26.043Z,2.35
2019-02-17T01:40:57.516Z,2.34
2019-02-17T01:43:28.821Z,2.32
2019-02-17T01:46:00.209Z,2.24
2019-02-17T01:48:31.541Z,2.28
2019-02-17T01:51:02.996Z,2.32
2019-02-17T01:53:34.363Z,2.33
2019-02-17T01:56:05.734Z,2.32
2019-02-17T01:58:37.143Z,2.33
2019-02-17T02:01:08.617Z,2.35
2019-02-17T02:03:40.029Z,2.32
2019-02-17T02:06:11.527Z,2.40
2019-02-17T02:08:42.908Z,2.33
2019-02-17T02:11:14.291Z,2.35
2019-02-17T02:13:45.855Z,2.36
2019-02-17T02:16:17.312Z,2.54
2019-02-17T02:18:48.691Z,2.34
2019-02-17T02:21:20.019Z,2.36
2019-02-17T02:23:51.455Z,2.41
2019-02-17T02:26:23.952Z,2.32
2019-02-17T02:28:56.428Z,2.39
2019-02-17T02:31:27.803Z,2.26
2019-02-17T02:33:59.188Z,2.39
2019-02-17T02:36:30.511Z,2.35
2019-02-17T02:39:01.812Z,2.37
2019-02-17T02:41:35.012Z,2.31
2019-02-17T02:44:06.647Z,2.22
2019-02-17T02:46:37.991Z,2.43
2019-02-17T02:49:09.333Z,2.40
2019-02-17T02:51:40.783Z,2.30
2019-02-17T02:54:12.259Z,2.33
2019-02-17T02:56:43.701Z,2.34
2019-02-17T02:59:15.128Z,2.38
2019-02-17T03:01:46.582Z,2.31
2019-02-17T03:04:17.959Z,2.36
2019-02-17T03:06:51.098Z,2.45
2019-02-17T03:09:22.676Z,2.39
2019-02-17T03:11:53.947Z,2.46
2019-02-17T03:14:25.385Z,2.39
2019-02-17T03:16:56.715Z,2.39
2019-02-17T03:19:28.060Z,2.36
2019-02-17T03:21:59.528Z,2.47
2019-02-17T03:24:30.943Z,2.34
2019-02-17T03:27:02.341Z,2.43
2019-02-17T03:29:33.755Z,2.36
2019-02-17T03:32:05.205Z,2.37
2019-02-17T03:34:36.656Z,2.35
2019-02-17T03:37:08.100Z,2.31
2019-02-17T03:39:39.718Z,2.41
2019-02-17T03:42:11.170Z,2.32
2019-02-17T03:44:42.658Z,2.35
2019-02-17T03:47:14.203Z,2.26
2019-02-17T03:49:45.781Z,2.30
2019-02-17T03:52:17.220Z,2.30
2019-02-17T03:54:48.658Z,2.33
2019-02-17T03:57:19.918Z,2.25
2019-02-17T03:59:51.381Z,2.21
2019-02-17T04:02:22.907Z,2.35
2019-02-17T04:04:54.290Z,2.27
2019-02-17T04:07:26.598Z,2.28
2019-02-17T04:09:58.106Z,2.27
2019-02-17T04:12:30.454Z,2.21
2019-02-17T04:15:01.902Z,2.30
2019-02-17T04:17:33.329Z,2.30
2019-02-17T04:20:05.860Z,2.29
2019-02-17T04:22:38.314Z,2.26
2019-02-17T04:25:09.764Z,2.28
2019-02-17T04:27:41.297Z,2.29
2019-02-17T04:30:12.759Z,2.24
2019-02-17T04:32:44.101Z,2.27
2019-02-17T04:35:15.353Z,2.26
2019-02-17T04:37:46.833Z,2.39
2019-02-17T04:40:18.287Z,2.39
2019-02-17T04:42:49.658Z,2.49
2019-02-17T04:45:21.148Z,2.46
2019-02-17T04:47:52.611Z,2.32
2019-02-17T04:50:24.053Z,2.34
2019-02-17T04:52:55.393Z,2.40
2019-02-17T04:55:27.056Z,2.39
2019-02-17T04:57:58.504Z,2.36
2019-02-17T05:00:39.509Z,2.44
2019-02-17T05:03:03.043Z,2.42
2019-02-17T05:05:34.378Z,2.39
2019-02-17T05:08:05.723Z,2.45
2019-02-17T05:10:37.218Z,2.53
2019-02-17T05:13:08.673Z,2.51
2019-02-17T05:15:40.240Z,2.58
2019-02-17T05:18:11.742Z,2.49
2019-02-17T05:20:43.074Z,2.48
2019-02-17T05:23:14.529Z,2.53
2019-02-17T05:25:45.894Z,2.45
2019-02-17T05:28:17.528Z,2.48
2019-02-17T05:30:52.938Z,2.52
2019-02-17T05:33:22.190Z,2.60
2019-02-17T05:35:53.627Z,2.57
2019-02-17T05:38:26.162Z,2.60
2019-02-17T05:40:57.535Z,2.58
2019-02-17T05:43:29.087Z,2.45
2019-02-17T05:46:00.363Z,2.44
2019-02-17T05:48:31.733Z,2.44
2019-02-17T05:51:03.249Z,2.48
2019-02-17T05:53:34.605Z,2.48
2019-02-17T05:56:06.073Z,2.51
2019-02-17T05:58:37.490Z,2.53
2019-02-17T06:01:08.869Z,2.44
2019-02-17T06:03:40.305Z,2.53
2019-02-17T06:06:11.718Z,2.46
2019-02-17T06:08:43.196Z,2.53
2019-02-17T06:11:14.512Z,2.48
2019-02-17T06:13:45.868Z,2.47
2019-02-17T06:16:17.222Z,2.41
2019-02-17T06:18:48.737Z,2.37
2019-02-17T06:21:20.112Z,2.49
2019-02-17T06:23:51.479Z,2.47
2019-02-17T06:26:22.812Z,2.40
2019-02-17T06:28:54.145Z,2.39
2019-02-17T06:31:28.846Z,2.53
2019-02-17T06:34:00.380Z,2.50
2019-02-17T06:36:31.812Z,2.46
2019-02-17T06:39:04.746Z,2.51
2019-02-17T06:41:36.294Z,2.44
2019-02-17T06:44:07.652Z,2.42
2019-02-17T06:46:40.550Z,2.47
2019-02-17T06:49:12.148Z,2.31
2019-02-17T06:51:43.590Z,2.44
2019-02-17T06:54:15.050Z,2.52
2019-02-17T06:56:48.056Z,2.46
2019-02-17T06:59:19.387Z,2.33
2019-02-17T07:01:50.882Z,2.52
2019-02-17T07:04:23.825Z,2.70
2019-02-17T07:06:56.822Z,2.54
2019-02-17T07:09:28.278Z,2.60
2019-02-17T07:11:59.486Z,2.61
2019-02-17T07:14:30.573Z,2.53
2019-02-17T07:17:02.171Z,2.50
2019-02-17T07:19:33.250Z,2.69
2019-02-17T07:22:04.271Z,2.98
2019-02-17T07:24:35.717Z,3.00
2019-02-17T07:27:07.167Z,3.04
2019-02-17T07:29:38.378Z,3.13
2019-02-17T07:32:11.322Z,3.24
2019-02-17T07:34:42.827Z,3.27
2019-02-17T07:37:14.452Z,3.50
2019-02-17T07:39:45.951Z,3.26
2019-02-17T07:42:17.285Z,3.20
2019-02-17T07:44:48.731Z,3.09
2019-02-17T07:47:21.107Z,3.31
2019-02-17T07:49:52.559Z,3.48
2019-02-17T07:52:23.945Z,3.67
2019-02-17T07:54:55.246Z,3.90
2019-02-17T07:57:26.723Z,4.07
2019-02-17T07:59:58.193Z,4.01
2019-02-17T08:02:29.620Z,4.10
2019-02-17T08:05:01.068Z,4.07
2019-02-17T08:07:32.501Z,3.96
2019-02-17T08:10:08.436Z,3.86
2019-02-17T08:12:39.927Z,4.03
2019-02-17T08:15:11.287Z,4.19
2019-02-17T08:17:42.618Z,4.27
2019-02-17T08:20:13.980Z,4.45
2019-02-17T08:22:45.344Z,4.59
2019-02-17T08:25:21.727Z,4.44
2019-02-17T08:27:49.877Z,4.47
2019-02-17T08:30:21.239Z,4.47
2019-02-17T08:32:52.500Z,4.65
2019-02-17T08:35:24.013Z,4.59
2019-02-17T08:37:55.359Z,5.01
2019-02-17T08:40:26.834Z,5.11
2019-02-17T08:42:58.207Z,5.38
2019-02-17T08:45:29.691Z,5.34
2019-02-17T08:48:01.158Z,5.31
2019-02-17T08:50:32.598Z,5.40
2019-02-17T08:53:04.052Z,5.59
2019-02-17T08:55:35.381Z,5.60
2019-02-17T08:58:06.809Z,5.61
2019-02-17T09:00:38.124Z,5.52
2019-02-17T09:03:09.524Z,5.73
2019-02-17T09:05:44.409Z,5.93
2019-02-17T09:08:15.366Z,5.88
2019-02-17T09:10:46.711Z,5.73
2019-02-17T09:13:18.655Z,5.78
2019-02-17T09:15:50.423Z,5.82
2019-02-17T09:18:21.818Z,5.84
2019-02-17T09:20:53.310Z,5.82
2019-02-17T09:23:24.647Z,6.02
2019-02-17T09:25:55.983Z,6.08
2019-02-17T09:28:27.355Z,5.98
2019-02-17T09:30:58.762Z,6.13
2019-02-17T09:33:30.078Z,6.21
2019-02-17T09:36:01.566Z,6.33
2019-02-17T09:38:32.978Z,6.44
2019-02-17T09:41:04.457Z,6.43
2019-02-17T09:43:35.841Z,6.50
2019-02-17T09:46:07.170Z,6.63
2019-02-17T09:48:38.519Z,6.87
2019-02-17T09:51:11.067Z,7.13
2019-02-17T09:53:42.414Z,7.24
2019-02-17T09:56:14.817Z,7.21
2019-02-17T09:58:46.154Z,7.29
2019-02-17T10:01:17.527Z,7.41
2019-02-17T10:03:48.944Z,7.46
2019-02-17T10:06:20.421Z,7.53
2019-02-17T10:08:51.778Z,7.69
2019-02-17T10:11:23.194Z,7.87
2019-02-17T10:13:54.759Z,8.00
2019-02-17T10:16:26.237Z,7.94
2019-02-17T10:18:57.554Z,7.95
2019-02-17T10:21:29.095Z,7.88
2019-02-17T10:24:00.566Z,8.10
2019-02-17T10:26:31.909Z,8.20
2019-02-17T10:29:03.248Z,8.20
2019-02-17T10:31:34.543Z,8.25
2019-02-17T10:34:05.867Z,8.41
2019-02-17T10:36:37.213Z,8.41
2019-02-17T10:39:08.713Z,8.59
2019-02-17T10:41:40.196Z,8.49
2019-02-17T10:44:11.605Z,8.50
2019-02-17T10:46:43.123Z,8.45
2019-02-17T10:49:14.450Z,8.66
2019-02-17T10:51:45.879Z,8.77
2019-02-17T10:54:17.215Z,8.71
2019-02-17T10:56:48.551Z,8.79
2019-02-17T10:59:20.045Z,8.89
2019-02-17T11:01:51.605Z,9.00
2019-02-17T11:04:22.899Z,9.00
2019-02-17T11:06:54.256Z,9.16
2019-02-17T11:09:25.605Z,8.99
2019-02-17T11:11:56.996Z,9.00
2019-02-17T11:14:28.437Z,9.06
2019-02-17T11:17:00.108Z,9.30
2019-02-17T11:19:31.544Z,9.31
2019-02-17T11:22:02.978Z,9.29
2019-02-17T11:24:34.323Z,9.40
2019-02-17T11:27:05.777Z,9.54
2019-02-17T11:29:37.262Z,9.44
2019-02-17T11:32:08.678Z,9.54
2019-02-17T11:34:40.100Z,9.61
2019-02-17T11:37:11.459Z,9.57
2019-02-17T11:39:42.797Z,9.56
2019-02-17T11:42:14.101Z,9.81
2019-02-17T11:44:45.523Z,9.85
2019-02-17T11:47:16.902Z,9.98
2019-02-17T11:49:48.125Z,10.10
2019-02-17T11:52:19.543Z,10.11
2019-02-17T11:54:51.021Z,10.29
2019-02-17T11:57:22.483Z,10.24
2019-02-17T11:59:53.911Z,10.28
2019-02-17T12:02:25.530Z,10.39
2019-02-17T12:04:57.447Z,10.42
2019-02-17T12:07:28.865Z,10.56
2019-02-17T12:10:01.463Z,10.49
2019-02-17T12:12:33.915Z,10.59
2019-02-17T12:15:08.624Z,10.69
2019-02-17T12:17:40.149Z,10.63
2019-02-17T12:20:41.391Z,10.74
2019-02-17T12:23:20.400Z,10.70
2019-02-17T12:25:56.344Z,10.71
2019-02-17T12:28:29.227Z,10.68
2019-02-17T12:31:00.682Z,10.67
2019-02-17T12:33:32.003Z,10.75
2019-02-17T12:36:03.326Z,10.65
2019-02-17T12:38:34.718Z,10.87
2019-02-17T12:41:06.170Z,10.86
2019-02-17T12:43:37.613Z,10.73
2019-02-17T12:46:09.076Z,10.68
2019-02-17T12:48:40.537Z,10.87
2019-02-17T12:51:11.913Z,10.73
2019-02-17T12:53:43.307Z,10.64
2019-02-17T12:56:14.662Z,10.75
2019-02-17T12:58:45.901Z,10.75
2019-02-17T13:01:17.358Z,10.64
2019-02-17T13:03:48.679Z,10.78
2019-02-17T13:06:20.064Z,10.73
2019-02-17T13:08:51.395Z,10.74
2019-02-17T13:11:22.810Z,10.81
2019-02-17T13:13:54.204Z,10.67
2019-02-17T13:16:25.554Z,10.66
2019-02-17T13:18:57.028Z,10.67
2019-02-17T13:21:28.343Z,10.63
2019-02-17T13:23:59.634Z,10.58
2019-02-17T13:26:30.950Z,10.48
2019-02-17T13:29:02.337Z,10.62
2019-02-17T13:31:33.738Z,10.45
2019-02-17T13:34:05.194Z,10.50
2019-02-17T13:36:36.532Z,10.33
2019-02-17T13:39:08.012Z,10.29
2019-02-17T13:41:39.464Z,10.22
2019-02-17T13:44:10.770Z,10.26
2019-02-17T13:46:42.271Z,10.24
2019-02-17T13:49:13.892Z,10.16
2019-02-17T13:51:45.468Z,10.11
2019-02-17T13:54:16.884Z,10.05
2019-02-17T13:56:48.273Z,10.00
2019-02-17T13:59:19.609Z,9.88
2019-02-17T14:01:51.035Z,9.93
2019-02-17T14:04:22.604Z,9.74
2019-02-17T14:06:53.917Z,9.70
2019-02-17T14:09:25.391Z,9.56
2019-02-17T14:11:56.738Z,9.42
2019-02-17T14:14:28.398Z,9.51
2019-02-17T14:16:59.835Z,9.34
2019-02-17T14:19:31.184Z,9.33
2019-02-17T14:22:02.541Z,9.31
2019-02-17T14:24:34.020Z,9.24
2019-02-17T14:27:05.449Z,9.15
2019-02-17T14:29:36.876Z,9.09
2019-02-17T14:32:08.332Z,9.05
2019-02-17T14:34:39.648Z,9.10
2019-02-17T14:37:13.263Z,8.93
2019-02-17T14:39:44.016Z,8.97
2019-02-17T14:42:15.353Z,8.93
2019-02-17T14:44:47.037Z,8.84
2019-02-17T14:47:18.563Z,8.84
2019-02-17T14:49:50.059Z,8.65
2019-02-17T14:52:21.392Z,8.59
2019-02-17T14:54:52.744Z,8.52
2019-02-17T14:57:24.108Z,8.57
2019-02-17T14:59:55.638Z,8.38
2019-02-17T15:02:26.873Z,8.43
2019-02-17T15:04:58.255Z,8.41
2019-02-17T15:07:29.663Z,8.26
2019-02-17T15:10:01.016Z,8.23
2019-02-17T15:12:33.584Z,8.34
2019-02-17T15:15:07.265Z,8.26
2019-02-17T15:17:38.634Z,8.11
2019-02-17T15:20:13.188Z,8.05
2019-02-17T15:22:44.516Z,8.02
2019-02-17T15:25:15.816Z,7.94
2019-02-17T15:27:47.195Z,7.93
2019-02-17T15:30:18.653Z,7.93
2019-02-17T15:32:49.996Z,7.78
2019-02-17T15:35:22.464Z,7.87
2019-02-17T15:37:54.135Z,7.88
2019-02-17T15:40:26.572Z,7.67
2019-02-17T15:42:58.020Z,7.62
2019-02-17T15:45:29.446Z,7.60
2019-02-17T15:48:00.753Z,7.59
2019-02-17T15:50:32.117Z,7.53
2019-02-17T15:53:03.552Z,7.42
2019-02-17T15:55:35.001Z,7.46
2019-02-17T15:58:06.442Z,7.34
2019-02-17T16:00:37.801Z,7.46
2019-02-17T16:03:09.170Z,7.35
2019-02-17T16:05:40.632Z,7.36
2019-02-17T16:08:12.071Z,7.26
2019-02-17T16:10:43.424Z,7.26
2019-02-17T16:13:14.763Z,7.22
2019-02-17T16:15:46.305Z,7.25
2019-02-17T16:18:17.747Z,7.18
2019-02-17T16:20:50.224Z,7.09
2019-02-17T16:23:21.660Z,7.22
2019-02-17T16:25:53.132Z,7.17
2019-02-17T16:28:24.576Z,7.21
2019-02-17T16:30:56.020Z,7.18
2019-02-17T16:33:27.394Z,7.16
2019-02-17T16:35:58.848Z,7.20
2019-02-17T16:38:30.211Z,7.05
2019-02-17T16:41:01.540Z,7.02
2019-02-17T16:43:32.966Z,7.09
2019-02-17T16:46:04.406Z,7.03
2019-02-17T16:48:35.875Z,6.93
2019-02-17T16:51:07.420Z,7.03
2019-02-17T16:53:38.875Z,7.00
2019-02-17T16:56:10.335Z,6.93
2019-02-17T16:58:41.737Z,6.92
2019-02-17T17:01:13.214Z,6.95
2019-02-17T17:03:44.672Z,7.02
2019-02-17T17:06:16.134Z,6.85
2019-02-17T17:08:47.569Z,6.93
2019-02-17T17:11:18.886Z,6.96
2019-02-17T17:13:50.361Z,6.86
2019-02-17T17:16:21.724Z,6.96
2019-02-17T17:18:53.072Z,6.81
2019-02-17T17:21:24.546Z,6.90
2019-02-17T17:23:55.901Z,6.86
2019-02-17T17:26:27.320Z,6.86
2019-02-17T17:28:58.745Z,6.77
2019-02-17T17:31:30.202Z,6.72
2019-02-17T17:34:01.547Z,6.71
2019-02-17T17:36:32.893Z,6.76
2019-02-17T17:39:04.474Z,6.71
2019-02-17T17:41:37.822Z,6.72
2019-02-17T17:44:09.191Z,6.68
2019-02-17T17:46:40.653Z,6.71
2019-02-17T17:49:19.016Z,6.68
2019-02-17T17:51:46.420Z,6.65
2019-02-17T17:54:17.848Z,6.70
2019-02-17T17:56:49.217Z,6.58
2019-02-17T17:59:20.776Z,6.45
2019-02-17T18:01:51.984Z,6.47
2019-02-17T18:04:23.478Z,6.53
2019-02-17T18:06:57.007Z,6.52
2019-02-17T18:09:27.929Z,6.48
2019-02-17T18:11:59.450Z,6.56
2019-02-17T18:14:30.817Z,6.51
2019-02-17T18:17:02.055Z,6.56
2019-02-17T18:19:33.493Z,6.57
2019-02-17T18:22:04.947Z,6.34
2019-02-17T18:24:36.401Z,6.35
2019-02-17T18:27:07.966Z,6.27
2019-02-17T18:29:39.334Z,6.23
2019-02-17T18:32:10.745Z,6.26
2019-02-17T18:34:42.206Z,6.23
2019-02-17T18:37:13.546Z,6.12
2019-02-17T18:39:45.764Z,6.08
2019-02-17T18:42:17.172Z,6.14
2019-02-17T18:44:48.413Z,6.24
2019-02-17T18:47:20.019Z,6.12
2019-02-17T18:49:51.422Z,6.16
2019-02-17T18:52:22.878Z,6.17
2019-02-17T18:54:55.275Z,6.11
2019-02-17T18:57:26.623Z,6.28
2019-02-17T18:59:58.130Z,6.14
2019-02-17T19:02:29.472Z,6.13
2019-02-17T19:05:01.134Z,6.10
2019-02-17T19:07:32.490Z,6.15
2019-02-17T19:10:04.954Z,6.15
2019-02-17T19:12:36.412Z,6.12
2019-02-17T19:15:12.814Z,6.03
2019-02-17T19:17:44.199Z,5.98
2019-02-17T19:20:30.585Z,6.01
2019-02-17T19:23:02.078Z,5.96
2019-02-17T19:25:33.527Z,6.02
2019-02-17T19:28:04.978Z,5.93
2019-02-17T19:30:36.429Z,5.93
2019-02-17T19:33:07.892Z,5.94
2019-02-17T19:35:42.119Z,5.86
2019-02-17T19:38:12.330Z,5.92
2019-02-17T19:40:43.764Z,5.86
2019-02-17T19:43:15.310Z,5.86
2019-02-17T19:45:46.632Z,5.86
2019-02-17T19:48:17.984Z,5.73
2019-02-17T19:50:49.326Z,5.77
2019-02-17T19:53:20.623Z,5.73
2019-02-17T19:55:51.997Z,5.74
2019-02-17T19:58:23.401Z,5.77
2019-02-17T20:00:54.798Z,5.72
2019-02-17T20:03:36.664Z,5.64
2019-02-17T20:06:09.203Z,5.66
2019-02-17T20:08:40.558Z,5.64
2019-02-17T20:11:11.997Z,5.57
2019-02-17T20:13:43.454Z,5.58
2019-02-17T20:16:15.883Z,5.53
2019-02-17T20:18:47.382Z,5.42
2019-02-17T20:21:18.714Z,5.44
2019-02-17T20:23:50.062Z,5.44
2019-02-17T20:26:21.384Z,5.30
2019-02-17T20:28:57.226Z,5.38
2019-02-17T20:31:25.875Z,5.38
2019-02-17T20:33:57.329Z,5.25
2019-02-17T20:36:30.022Z,5.28
2019-02-17T20:39:01.479Z,5.20
2019-02-17T20:41:34.001Z,5.24
2019-02-17T20:44:05.368Z,5.20
2019-02-17T20:46:36.828Z,5.20
2019-02-17T20:49:08.287Z,5.12
2019-02-17T20:51:39.726Z,5.07
2019-02-17T20:54:11.194Z,5.03
2019-02-17T20:56:42.564Z,4.91
2019-02-17T20:59:13.883Z,4.88
2019-02-17T21:01:45.312Z,4.75
2019-02-17T21:04:16.823Z,4.71
2019-02-17T21:06:48.228Z,4.66
2019-02-17T21:09:19.590Z,4.62
2019-02-17T21:11:50.964Z,4.54
2019-02-17T21:14:22.359Z,4.50
2019-02-17T21:16:53.813Z,4.44
2019-02-17T21:19:25.174Z,4.44
2019-02-17T21:21:56.634Z,4.46
2019-02-17T21:24:28.067Z,4.34
2019-02-17T21:26:59.398Z,4.22
2019-02-17T21:29:30.864Z,4.25
2019-02-17T21:32:03.375Z,4.20
2019-02-17T21:34:34.800Z,4.14
2019-02-17T21:37:06.132Z,4.11
2019-02-17T21:39:37.599Z,4.10
2019-02-17T21:42:09.074Z,4.00
2019-02-17T21:44:40.515Z,4.03
2019-02-17T21:47:11.935Z,4.03
2019-02-17T21:49:43.286Z,3.96
2019-02-17T21:52:14.636Z,3.89
2019-02-17T21:54:46.065Z,3.82
2019-02-17T21:57:18.582Z,3.79
2019-02-17T21:59:50.008Z,3.81
2019-02-17T22:02:21.465Z,3.71
2019-02-17T22:04:53.001Z,3.74
2019-02-17T22:07:24.165Z,3.64
2019-02-17T22:09:55.597Z,3.65
2019-02-17T22:12:27.055Z,3.60
2019-02-17T22:14:59.477Z,3.49
2019-02-17T22:17:30.870Z,3.48
2019-02-17T22:20:02.426Z,3.51
2019-02-17T22:22:33.851Z,3.40
2019-02-17T22:25:06.624Z,3.36
2019-02-17T22:27:37.930Z,3.38
2019-02-17T22:30:12.530Z,3.37
2019-02-17T22:32:43.878Z,3.39
2019-02-17T22:35:15.322Z,3.33
2019-02-17T22:37:46.679Z,3.29
2019-02-17T22:40:18.129Z,3.32
2019-02-17T22:42:49.435Z,3.25
2019-02-17T22:45:20.812Z,3.31
2019-02-17T22:47:52.272Z,3.21
2019-02-17T22:50:23.510Z,3.14
2019-02-17T22:52:54.962Z,3.13
2019-02-17T22:55:26.313Z,3.21
2019-02-17T22:57:57.799Z,3.11
2019-02-17T23:00:52.985Z,3.05
2019-02-17T23:03:25.840Z,3.01
2019-02-17T23:05:57.198Z,2.97
2019-02-17T23:08:28.552Z,2.95
2019-02-17T23:10:59.876Z,3.03
2019-02-17T23:13:31.353Z,2.90
2019-02-17T23:16:02.721Z,2.89
2019-02-17T23:18:34.058Z,2.91
2019-02-17T23:21:05.509Z,2.95
2019-02-17T23:23:36.922Z,2.85
2019-02-17T23:26:08.508Z,2.79
2019-02-17T23:28:39.948Z,2.83
2019-02-17T23:31:11.313Z,2.73
2019-02-17T23:33:42.667Z,2.72
2019-02-17T23:36:14.099Z,2.65
2019-02-17T23:38:45.402Z,2.71
2019-02-17T23:41:16.899Z,2.66
2019-02-17T23:43:48.250Z,2.69
2019-02-17T23:46:19.732Z,2.64
2019-02-17T23:48:51.034Z,2.64
2019-02-17T23:51:22.523Z,2.53
2019-02-17T23:53:53.933Z,2.55
2019-02-17T23:56:25.400Z,2.58
2019-02-17T23:58:56.844Z,2.62
